sensor_id;sensor_type;location;lat;lon;timestamp;pressure;altitude;pressure_sealevel;temperature;humidity
68141;BME280;54941;52.220;104.306;2023-06-22T00:01:37;95190.38;;;19.79;34.15
68141;BME280;54941;52.220;104.306;2023-06-22T00:04:03;95192.13;;;19.80;34.64
68141;BME280;54941;52.220;104.306;2023-06-22T00:06:30;95185.25;;;19.17;37.91
68141;BME280;54941;52.220;104.306;2023-06-22T00:08:56;95193.81;;;18.11;39.82
68141;BME280;54941;52.220;104.306;2023-06-22T00:11:22;95189.75;;;18.05;39.59
68141;BME280;54941;52.220;104.306;2023-06-22T00:13:50;95192.91;;;18.98;39.64
68141;BME280;54941;52.220;104.306;2023-06-22T00:16:16;95188.16;;;19.62;37.03
68141;BME280;54941;52.220;104.306;2023-06-22T00:18:42;95193.16;;;20.24;35.63
68141;BME280;54941;52.220;104.306;2023-06-22T00:21:09;95187.72;;;20.48;34.13
68141;BME280;54941;52.220;104.306;2023-06-22T00:23:35;95180.44;;;21.27;32.47
68141;BME280;54941;52.220;104.306;2023-06-22T00:26:02;95182.38;;;22.31;30.94
68141;BME280;54941;52.220;104.306;2023-06-22T00:28:28;95177.13;;;21.67;31.70
68141;BME280;54941;52.220;104.306;2023-06-22T00:30:56;95183.19;;;23.23;29.25
68141;BME280;54941;52.220;104.306;2023-06-22T00:33:22;95170.00;;;24.26;27.70
68141;BME280;54941;52.220;104.306;2023-06-22T00:35:48;95173.88;;;24.14;27.59
68141;BME280;54941;52.220;104.306;2023-06-22T00:38:15;95170.06;;;23.68;28.27
68141;BME280;54941;52.220;104.306;2023-06-22T00:40:41;95181.81;;;24.35;26.82
68141;BME280;54941;52.220;104.306;2023-06-22T00:43:08;95175.31;;;23.50;28.44
68141;BME280;54941;52.220;104.306;2023-06-22T00:45:34;95175.78;;;23.15;28.76
68141;BME280;54941;52.220;104.306;2023-06-22T00:48:03;95167.59;;;24.23;28.07
68141;BME280;54941;52.220;104.306;2023-06-22T00:50:30;95159.16;;;26.27;26.05
68141;BME280;54941;52.220;104.306;2023-06-22T00:52:59;95137.53;;;25.83;26.38
68141;BME280;54941;52.220;104.306;2023-06-22T00:55:26;95150.91;;;26.28;25.59
68141;BME280;54941;52.220;104.306;2023-06-22T00:57:53;95145.69;;;26.35;25.43
68141;BME280;54941;52.220;104.306;2023-06-22T01:00:22;95151.22;;;26.51;25.28
68141;BME280;54941;52.220;104.306;2023-06-22T01:02:49;95165.53;;;23.69;28.85
68141;BME280;54941;52.220;104.306;2023-06-22T01:05:17;95156.44;;;23.89;29.08
68141;BME280;54941;52.220;104.306;2023-06-22T01:07:55;95143.66;;;23.91;29.66
68141;BME280;54941;52.220;104.306;2023-06-22T01:10:28;95142.13;;;24.55;27.51
68141;BME280;54941;52.220;104.306;2023-06-22T01:13:02;95126.16;;;24.05;27.98
68141;BME280;54941;52.220;104.306;2023-06-22T01:15:33;95134.09;;;24.06;28.39
68141;BME280;54941;52.220;104.306;2023-06-22T01:18:00;95133.09;;;24.17;28.27
68141;BME280;54941;52.220;104.306;2023-06-22T01:20:34;95128.28;;;24.95;28.51
68141;BME280;54941;52.220;104.306;2023-06-22T01:23:09;95118.03;;;26.23;26.27
68141;BME280;54941;52.220;104.306;2023-06-22T01:25:45;95114.88;;;26.36;26.35
68141;BME280;54941;52.220;104.306;2023-06-22T01:30:52;95114.50;;;24.61;28.18
68141;BME280;54941;52.220;104.306;2023-06-22T01:33:19;95111.88;;;24.41;28.68
68141;BME280;54941;52.220;104.306;2023-06-22T01:35:46;95106.88;;;24.00;30.11
68141;BME280;54941;52.220;104.306;2023-06-22T01:38:12;95102.25;;;23.63;29.23
68141;BME280;54941;52.220;104.306;2023-06-22T01:40:39;95102.22;;;23.34;30.73
68141;BME280;54941;52.220;104.306;2023-06-22T01:43:06;95099.09;;;23.19;30.61
68141;BME280;54941;52.220;104.306;2023-06-22T01:45:32;95098.09;;;22.61;31.09
68141;BME280;54941;52.220;104.306;2023-06-22T01:48:00;95090.03;;;23.30;30.78
68141;BME280;54941;52.220;104.306;2023-06-22T01:50:27;95078.50;;;24.70;27.73
68141;BME280;54941;52.220;104.306;2023-06-22T01:52:54;95076.44;;;25.09;27.37
68141;BME280;54941;52.220;104.306;2023-06-22T01:55:21;95077.22;;;25.01;27.31
68141;BME280;54941;52.220;104.306;2023-06-22T01:57:47;95071.41;;;25.68;25.79
68141;BME280;54941;52.220;104.306;2023-06-22T02:00:18;95065.31;;;25.83;25.01
68141;BME280;54941;52.220;104.306;2023-06-22T02:02:50;95061.06;;;26.07;26.61
68141;BME280;54941;52.220;104.306;2023-06-22T02:05:19;95052.41;;;26.03;27.94
68141;BME280;54941;52.220;104.306;2023-06-22T02:07:51;95055.44;;;26.52;26.59
68141;BME280;54941;52.220;104.306;2023-06-22T02:10:21;95034.00;;;27.42;25.69
68141;BME280;54941;52.220;104.306;2023-06-22T02:12:48;95032.28;;;27.16;25.65
68141;BME280;54941;52.220;104.306;2023-06-22T02:15:16;95022.97;;;27.43;25.11
68141;BME280;54941;52.220;104.306;2023-06-22T02:17:43;95022.81;;;27.94;25.56
68141;BME280;54941;52.220;104.306;2023-06-22T02:20:12;95022.03;;;26.94;25.06
68141;BME280;54941;52.220;104.306;2023-06-22T02:22:40;95022.50;;;26.39;25.16
68141;BME280;54941;52.220;104.306;2023-06-22T02:25:07;95026.56;;;25.39;26.19
68141;BME280;54941;52.220;104.306;2023-06-22T02:27:34;95012.78;;;25.94;27.08
68141;BME280;54941;52.220;104.306;2023-06-22T02:30:00;95016.53;;;26.69;25.61
68141;BME280;54941;52.220;104.306;2023-06-22T02:32:26;95005.41;;;26.81;26.47
68141;BME280;54941;52.220;104.306;2023-06-22T02:34:53;95006.41;;;25.16;28.29
68141;BME280;54941;52.220;104.306;2023-06-22T02:37:19;95003.53;;;25.79;27.97
68141;BME280;54941;52.220;104.306;2023-06-22T02:39:47;95008.41;;;25.57;28.94
68141;BME280;54941;52.220;104.306;2023-06-22T02:42:13;95003.47;;;27.40;24.45
68141;BME280;54941;52.220;104.306;2023-06-22T02:44:40;95020.81;;;26.38;26.97
68141;BME280;54941;52.220;104.306;2023-06-22T02:47:06;95011.38;;;26.42;27.16
68141;BME280;54941;52.220;104.306;2023-06-22T02:49:32;94996.34;;;27.63;25.51
68141;BME280;54941;52.220;104.306;2023-06-22T02:51:59;94989.94;;;27.80;25.81
68141;BME280;54941;52.220;104.306;2023-06-22T02:54:25;94986.09;;;26.75;26.88
68141;BME280;54941;52.220;104.306;2023-06-22T02:56:53;94989.81;;;26.32;27.35
68141;BME280;54941;52.220;104.306;2023-06-22T02:59:19;94994.50;;;26.56;28.11
68141;BME280;54941;52.220;104.306;2023-06-22T03:01:45;94979.09;;;27.23;26.75
68141;BME280;54941;52.220;104.306;2023-06-22T03:04:12;94973.56;;;26.83;27.97
68141;BME280;54941;52.220;104.306;2023-06-22T03:06:38;94949.88;;;28.77;24.37
68141;BME280;54941;52.220;104.306;2023-06-22T03:09:05;94943.59;;;28.76;23.55
68141;BME280;54941;52.220;104.306;2023-06-22T03:11:32;94943.16;;;28.26;23.11
68141;BME280;54941;52.220;104.306;2023-06-22T03:14:00;94943.03;;;29.35;21.35
68141;BME280;54941;52.220;104.306;2023-06-22T03:16:26;94953.22;;;28.87;21.56
68141;BME280;54941;52.220;104.306;2023-06-22T03:18:53;94962.50;;;28.23;22.70
68141;BME280;54941;52.220;104.306;2023-06-22T03:21:19;94973.47;;;27.25;23.11
68141;BME280;54941;52.220;104.306;2023-06-22T03:23:46;94993.19;;;26.00;26.31
68141;BME280;54941;52.220;104.306;2023-06-22T03:26:12;94981.09;;;27.05;26.59
68141;BME280;54941;52.220;104.306;2023-06-22T03:28:38;94976.69;;;27.61;25.16
68141;BME280;54941;52.220;104.306;2023-06-22T03:31:06;94970.09;;;28.35;24.41
68141;BME280;54941;52.220;104.306;2023-06-22T03:33:32;94978.66;;;26.78;25.88
68141;BME280;54941;52.220;104.306;2023-06-22T03:36:02;94968.72;;;27.51;25.68
68141;BME280;54941;52.220;104.306;2023-06-22T03:38:28;94959.50;;;28.01;25.51
68141;BME280;54941;52.220;104.306;2023-06-22T03:40:55;94952.00;;;28.28;25.26
68141;BME280;54941;52.220;104.306;2023-06-22T03:43:21;94940.78;;;28.62;22.81
68141;BME280;54941;52.220;104.306;2023-06-22T03:45:47;94930.91;;;29.60;21.90
68141;BME280;54941;52.220;104.306;2023-06-22T03:48:15;94923.75;;;28.68;23.13
68141;BME280;54941;52.220;104.306;2023-06-22T03:50:41;94918.81;;;27.93;24.40
68141;BME280;54941;52.220;104.306;2023-06-22T03:53:08;94911.72;;;27.84;24.43
68141;BME280;54941;52.220;104.306;2023-06-22T03:55:34;94911.47;;;27.22;25.32
68141;BME280;54941;52.220;104.306;2023-06-22T03:58:00;94928.91;;;27.11;25.82
68141;BME280;54941;52.220;104.306;2023-06-22T04:00:27;94927.53;;;27.40;25.27
68141;BME280;54941;52.220;104.306;2023-06-22T04:02:53;94928.41;;;28.12;24.77
68141;BME280;54941;52.220;104.306;2023-06-22T04:05:21;94921.81;;;30.06;22.52
68141;BME280;54941;52.220;104.306;2023-06-22T04:07:47;94915.41;;;29.00;23.72
68141;BME280;54941;52.220;104.306;2023-06-22T04:10:13;94910.09;;;28.84;23.81
68141;BME280;54941;52.220;104.306;2023-06-22T04:12:40;94905.91;;;29.80;22.68
68141;BME280;54941;52.220;104.306;2023-06-22T04:15:07;94905.91;;;28.03;25.39
68141;BME280;54941;52.220;104.306;2023-06-22T04:17:33;94903.03;;;28.36;25.81
68141;BME280;54941;52.220;104.306;2023-06-22T04:20:00;94906.84;;;27.71;25.64
68141;BME280;54941;52.220;104.306;2023-06-22T04:22:28;94887.00;;;28.18;25.43
68141;BME280;54941;52.220;104.306;2023-06-22T04:24:54;94883.28;;;29.79;23.51
68141;BME280;54941;52.220;104.306;2023-06-22T04:27:20;94886.13;;;27.62;26.82
68141;BME280;54941;52.220;104.306;2023-06-22T04:29:46;94880.25;;;29.37;24.64
68141;BME280;54941;52.220;104.306;2023-06-22T04:32:13;94878.09;;;29.70;23.44
68141;BME280;54941;52.220;104.306;2023-06-22T04:34:39;94872.03;;;28.30;26.27
68141;BME280;54941;52.220;104.306;2023-06-22T04:37:05;94871.25;;;28.05;26.35
68141;BME280;54941;52.220;104.306;2023-06-22T04:39:33;94865.00;;;27.17;27.59
68141;BME280;54941;52.220;104.306;2023-06-22T04:41:59;94842.06;;;27.52;27.60
68141;BME280;54941;52.220;104.306;2023-06-22T04:44:26;94832.31;;;28.29;26.39
68141;BME280;54941;52.220;104.306;2023-06-22T04:46:54;94842.00;;;27.84;26.53
68141;BME280;54941;52.220;104.306;2023-06-22T04:49:21;94837.41;;;27.21;27.88
68141;BME280;54941;52.220;104.306;2023-06-22T04:51:47;94839.09;;;26.65;28.80
68141;BME280;54941;52.220;104.306;2023-06-22T04:54:14;94835.38;;;26.91;28.01
68141;BME280;54941;52.220;104.306;2023-06-22T04:56:41;94834.31;;;26.43;28.74
68141;BME280;54941;52.220;104.306;2023-06-22T04:59:08;94824.19;;;26.78;29.32
68141;BME280;54941;52.220;104.306;2023-06-22T05:01:34;94812.31;;;27.19;28.78
68141;BME280;54941;52.220;104.306;2023-06-22T05:04:01;94808.09;;;26.92;28.73
68141;BME280;54941;52.220;104.306;2023-06-22T05:06:27;94810.28;;;26.81;29.26
68141;BME280;54941;52.220;104.306;2023-06-22T05:08:55;94805.22;;;26.78;28.71
68141;BME280;54941;52.220;104.306;2023-06-22T05:11:21;94796.34;;;26.27;29.64
68141;BME280;54941;52.220;104.306;2023-06-22T05:13:49;94793.38;;;26.54;29.42
68141;BME280;54941;52.220;104.306;2023-06-22T05:16:15;94792.50;;;26.37;29.71
68141;BME280;54941;52.220;104.306;2023-06-22T05:18:42;94802.47;;;26.29;30.12
68141;BME280;54941;52.220;104.306;2023-06-22T05:21:08;94802.28;;;26.30;30.31
68141;BME280;54941;52.220;104.306;2023-06-22T05:23:34;94806.34;;;26.18;30.96
68141;BME280;54941;52.220;104.306;2023-06-22T05:26:01;94804.78;;;26.15;30.76
68141;BME280;54941;52.220;104.306;2023-06-22T05:28:27;94799.09;;;26.51;30.74
68141;BME280;54941;52.220;104.306;2023-06-22T05:30:55;94785.38;;;26.85;30.16
68141;BME280;54941;52.220;104.306;2023-06-22T05:33:21;94777.59;;;26.90;29.79
68141;BME280;54941;52.220;104.306;2023-06-22T05:35:48;94771.91;;;27.88;28.08
68141;BME280;54941;52.220;104.306;2023-06-22T05:38:14;94784.19;;;26.96;29.54
68141;BME280;54941;52.220;104.306;2023-06-22T05:40:40;94772.19;;;26.58;30.58
68141;BME280;54941;52.220;104.306;2023-06-22T05:43:07;94773.06;;;26.74;30.48
68141;BME280;54941;52.220;104.306;2023-06-22T05:45:33;94768.47;;;26.75;30.09
68141;BME280;54941;52.220;104.306;2023-06-22T05:48:01;94765.22;;;27.12;30.03
68141;BME280;54941;52.220;104.306;2023-06-22T05:50:27;94754.13;;;27.38;30.97
68141;BME280;54941;52.220;104.306;2023-06-22T05:52:54;94751.75;;;27.82;29.36
68141;BME280;54941;52.220;104.306;2023-06-22T05:55:20;94755.34;;;27.27;30.02
68141;BME280;54941;52.220;104.306;2023-06-22T05:57:46;94757.03;;;28.07;28.86
68141;BME280;54941;52.220;104.306;2023-06-22T06:00:13;94755.63;;;28.65;28.22
68141;BME280;54941;52.220;104.306;2023-06-22T06:02:40;94755.22;;;28.30;28.55
68141;BME280;54941;52.220;104.306;2023-06-22T06:05:08;94769.38;;;28.48;28.49
68141;BME280;54941;52.220;104.306;2023-06-22T06:07:34;94769.63;;;28.00;29.20
68141;BME280;54941;52.220;104.306;2023-06-22T06:10:00;94753.72;;;28.28;29.07
68141;BME280;54941;52.220;104.306;2023-06-22T06:12:27;94747.31;;;28.12;29.21
68141;BME280;54941;52.220;104.306;2023-06-22T06:14:53;94748.13;;;27.67;29.97
68141;BME280;54941;52.220;104.306;2023-06-22T06:17:19;94744.75;;;27.88;29.82
68141;BME280;54941;52.220;104.306;2023-06-22T06:19:46;94740.25;;;27.80;30.52
68141;BME280;54941;52.220;104.306;2023-06-22T06:22:13;94750.53;;;27.93;30.50
68141;BME280;54941;52.220;104.306;2023-06-22T06:24:40;94734.09;;;28.40;30.35
68141;BME280;54941;52.220;104.306;2023-06-22T06:27:06;94728.84;;;28.39;30.85
68141;BME280;54941;52.220;104.306;2023-06-22T06:29:33;94714.88;;;28.19;30.79
68141;BME280;54941;52.220;104.306;2023-06-22T06:31:59;94717.19;;;28.30;30.84
68141;BME280;54941;52.220;104.306;2023-06-22T06:34:25;94727.25;;;28.44;30.48
68141;BME280;54941;52.220;104.306;2023-06-22T06:36:52;94719.25;;;28.28;31.14
68141;BME280;54941;52.220;104.306;2023-06-22T06:39:19;94706.53;;;27.98;31.49
68141;BME280;54941;52.220;104.306;2023-06-22T06:41:46;94715.25;;;28.76;30.41
68141;BME280;54941;52.220;104.306;2023-06-22T06:44:12;94713.00;;;28.80;30.85
68141;BME280;54941;52.220;104.306;2023-06-22T06:46:39;94712.53;;;28.76;30.90
68141;BME280;54941;52.220;104.306;2023-06-22T06:49:05;94707.69;;;28.87;30.92
68141;BME280;54941;52.220;104.306;2023-06-22T06:51:31;94696.22;;;28.99;31.21
68141;BME280;54941;52.220;104.306;2023-06-22T06:53:58;94703.47;;;28.84;30.43
68141;BME280;54941;52.220;104.306;2023-06-22T06:56:26;94696.59;;;28.96;30.49
68141;BME280;54941;52.220;104.306;2023-06-22T06:58:52;94692.47;;;29.30;30.12
68141;BME280;54941;52.220;104.306;2023-06-22T07:01:18;94694.38;;;28.16;31.40
68141;BME280;54941;52.220;104.306;2023-06-22T07:03:45;94696.34;;;28.23;31.44
68141;BME280;54941;52.220;104.306;2023-06-22T07:06:12;94697.69;;;28.50;31.80
68141;BME280;54941;52.220;104.306;2023-06-22T07:08:39;94700.50;;;28.56;31.19
68141;BME280;54941;52.220;104.306;2023-06-22T07:11:05;94700.69;;;28.55;31.62
68141;BME280;54941;52.220;104.306;2023-06-22T07:13:33;94698.34;;;28.52;31.84
68141;BME280;54941;52.220;104.306;2023-06-22T07:15:59;94690.91;;;28.45;32.15
68141;BME280;54941;52.220;104.306;2023-06-22T07:18:25;94691.56;;;28.25;32.77
68141;BME280;54941;52.220;104.306;2023-06-22T07:20:52;94689.19;;;28.30;32.80
68141;BME280;54941;52.220;104.306;2023-06-22T07:23:18;94687.91;;;28.40;32.95
68141;BME280;54941;52.220;104.306;2023-06-22T07:25:45;94684.31;;;28.63;32.35
68141;BME280;54941;52.220;104.306;2023-06-22T07:28:11;94709.81;;;28.76;32.52
68141;BME280;54941;52.220;104.306;2023-06-22T07:30:39;94701.56;;;28.70;32.13
68141;BME280;54941;52.220;104.306;2023-06-22T07:33:05;94698.63;;;28.11;32.31
68141;BME280;54941;52.220;104.306;2023-06-22T07:35:32;94684.69;;;27.68;33.50
68141;BME280;54941;52.220;104.306;2023-06-22T07:37:58;94669.50;;;28.65;31.81
68141;BME280;54941;52.220;104.306;2023-06-22T07:40:25;94669.88;;;28.62;31.99
68141;BME280;54941;52.220;104.306;2023-06-22T07:42:51;94668.41;;;28.74;32.44
68141;BME280;54941;52.220;104.306;2023-06-22T07:45:17;94675.59;;;28.67;31.69
68141;BME280;54941;52.220;104.306;2023-06-22T07:47:45;94681.41;;;28.64;32.25
68141;BME280;54941;52.220;104.306;2023-06-22T07:50:12;94686.44;;;28.53;32.51
68141;BME280;54941;52.220;104.306;2023-06-22T07:52:38;94696.94;;;28.10;34.36
68141;BME280;54941;52.220;104.306;2023-06-22T07:55:05;94716.25;;;27.53;35.83
68141;BME280;54941;52.220;104.306;2023-06-22T07:57:31;94727.84;;;27.39;36.16
68141;BME280;54941;52.220;104.306;2023-06-22T07:59:58;94720.28;;;27.18;37.09
68141;BME280;54941;52.220;104.306;2023-06-22T08:02:24;94735.13;;;26.58;37.81
68141;BME280;54941;52.220;104.306;2023-06-22T08:04:52;94730.56;;;26.59;38.26
68141;BME280;54941;52.220;104.306;2023-06-22T08:07:18;94737.75;;;25.93;39.36
68141;BME280;54941;52.220;104.306;2023-06-22T08:09:47;94753.63;;;25.38;40.46
68141;BME280;54941;52.220;104.306;2023-06-22T08:12:13;94747.41;;;25.87;39.31
68141;BME280;54941;52.220;104.306;2023-06-22T08:14:41;94755.78;;;25.34;40.43
68141;BME280;54941;52.220;104.306;2023-06-22T08:17:07;94754.47;;;24.78;41.30
68141;BME280;54941;52.220;104.306;2023-06-22T08:19:34;94736.75;;;25.36;39.84
68141;BME280;54941;52.220;104.306;2023-06-22T08:22:02;94742.97;;;25.78;39.41
68141;BME280;54941;52.220;104.306;2023-06-22T08:24:28;94743.28;;;25.33;40.29
68141;BME280;54941;52.220;104.306;2023-06-22T08:26:54;94733.06;;;25.53;40.06
68141;BME280;54941;52.220;104.306;2023-06-22T08:29:21;94738.31;;;25.54;39.41
68141;BME280;54941;52.220;104.306;2023-06-22T08:31:47;94748.06;;;25.05;39.90
68141;BME280;54941;52.220;104.306;2023-06-22T08:34:13;94739.94;;;25.39;38.79
68141;BME280;54941;52.220;104.306;2023-06-22T08:36:40;94733.41;;;25.50;38.24
68141;BME280;54941;52.220;104.306;2023-06-22T08:39:08;94740.47;;;25.43;38.70
68141;BME280;54941;52.220;104.306;2023-06-22T08:41:34;94742.66;;;25.39;37.96
68141;BME280;54941;52.220;104.306;2023-06-22T08:44:00;94742.69;;;25.55;37.68
68141;BME280;54941;52.220;104.306;2023-06-22T08:46:27;94752.34;;;24.90;38.58
68141;BME280;54941;52.220;104.306;2023-06-22T08:48:53;94745.13;;;24.47;38.95
68141;BME280;54941;52.220;104.306;2023-06-22T08:51:19;94745.50;;;24.16;38.96
68141;BME280;54941;52.220;104.306;2023-06-22T08:53:46;94749.78;;;24.62;38.17
68141;BME280;54941;52.220;104.306;2023-06-22T08:56:13;94746.31;;;24.70;37.70
68141;BME280;54941;52.220;104.306;2023-06-22T08:58:40;94737.00;;;24.98;37.69
68141;BME280;54941;52.220;104.306;2023-06-22T09:01:06;94755.41;;;24.69;38.81
68141;BME280;54941;52.220;104.306;2023-06-22T09:03:32;94757.53;;;24.22;39.52
68141;BME280;54941;52.220;104.306;2023-06-22T09:05:59;94767.88;;;24.44;39.11
68141;BME280;54941;52.220;104.306;2023-06-22T09:08:25;94759.09;;;23.89;39.69
68141;BME280;54941;52.220;104.306;2023-06-22T09:10:51;94754.44;;;24.16;39.67
68141;BME280;54941;52.220;104.306;2023-06-22T09:13:19;94761.28;;;24.29;39.34
68141;BME280;54941;52.220;104.306;2023-06-22T09:15:45;94775.84;;;23.82;39.63
68141;BME280;54941;52.220;104.306;2023-06-22T09:18:14;94785.53;;;23.48;40.64
68141;BME280;54941;52.220;104.306;2023-06-22T09:20:40;94800.66;;;23.68;40.67
68141;BME280;54941;52.220;104.306;2023-06-22T09:23:06;94810.13;;;23.72;41.19
68141;BME280;54941;52.220;104.306;2023-06-22T09:25:33;94799.75;;;23.77;40.53
68141;BME280;54941;52.220;104.306;2023-06-22T09:27:59;94797.69;;;23.62;41.41
68141;BME280;54941;52.220;104.306;2023-06-22T09:30:27;94807.88;;;23.40;41.61
68141;BME280;54941;52.220;104.306;2023-06-22T09:32:53;94797.63;;;23.16;42.31
68141;BME280;54941;52.220;104.306;2023-06-22T09:35:19;94814.91;;;23.14;42.23
68141;BME280;54941;52.220;104.306;2023-06-22T09:37:45;94821.72;;;23.18;42.44
68141;BME280;54941;52.220;104.306;2023-06-22T09:40:12;94825.63;;;22.96;42.90
68141;BME280;54941;52.220;104.306;2023-06-22T09:42:39;94831.16;;;22.75;43.30
68141;BME280;54941;52.220;104.306;2023-06-22T09:45:06;94813.84;;;22.78;43.67
68141;BME280;54941;52.220;104.306;2023-06-22T09:47:36;94805.25;;;22.64;43.54
68141;BME280;54941;52.220;104.306;2023-06-22T09:50:03;94797.41;;;22.90;43.14
68141;BME280;54941;52.220;104.306;2023-06-22T09:52:32;94791.22;;;22.51;43.58
68141;BME280;54941;52.220;104.306;2023-06-22T09:54:58;94770.56;;;22.42;44.39
68141;BME280;54941;52.220;104.306;2023-06-22T09:57:24;94764.56;;;22.67;43.67
68141;BME280;54941;52.220;104.306;2023-06-22T09:59:51;94744.41;;;22.25;45.28
68141;BME280;54941;52.220;104.306;2023-06-22T10:02:17;94713.38;;;21.92;46.62
68141;BME280;54941;52.220;104.306;2023-06-22T10:04:45;94699.50;;;21.58;48.68
68141;BME280;54941;52.220;104.306;2023-06-22T10:07:11;94721.59;;;21.80;48.26
68141;BME280;54941;52.220;104.306;2023-06-22T10:09:37;94747.34;;;21.93;48.97
68141;BME280;54941;52.220;104.306;2023-06-22T10:12:04;94760.78;;;21.83;50.92
68141;BME280;54941;52.220;104.306;2023-06-22T10:14:31;94764.88;;;21.87;49.52
68141;BME280;54941;52.220;104.306;2023-06-22T10:16:57;94795.88;;;21.81;52.11
68141;BME280;54941;52.220;104.306;2023-06-22T10:19:23;94804.97;;;22.09;49.76
68141;BME280;54941;52.220;104.306;2023-06-22T10:21:51;94805.81;;;21.91;50.58
68141;BME280;54941;52.220;104.306;2023-06-22T10:24:17;94819.44;;;21.49;52.02
68141;BME280;54941;52.220;104.306;2023-06-22T10:26:44;94814.19;;;21.47;51.40
68141;BME280;54941;52.220;104.306;2023-06-22T10:29:10;94822.34;;;21.36;51.97
68141;BME280;54941;52.220;104.306;2023-06-22T10:31:36;94825.19;;;21.35;51.71
68141;BME280;54941;52.220;104.306;2023-06-22T10:34:02;94834.59;;;21.60;50.76
68141;BME280;54941;52.220;104.306;2023-06-22T10:36:29;94832.34;;;21.65;51.32
68141;BME280;54941;52.220;104.306;2023-06-22T10:38:57;94834.03;;;21.56;51.87
68141;BME280;54941;52.220;104.306;2023-06-22T10:41:23;94836.28;;;21.61;52.26
68141;BME280;54941;52.220;104.306;2023-06-22T10:43:49;94838.19;;;21.79;51.62
68141;BME280;54941;52.220;104.306;2023-06-22T10:46:16;94851.19;;;21.74;52.28
68141;BME280;54941;52.220;104.306;2023-06-22T10:48:42;94848.09;;;21.79;51.99
68141;BME280;54941;52.220;104.306;2023-06-22T10:51:08;94836.28;;;21.61;52.82
68141;BME280;54941;52.220;104.306;2023-06-22T10:53:34;94842.72;;;21.79;52.25
68141;BME280;54941;52.220;104.306;2023-06-22T10:56:03;94844.59;;;21.48;53.75
68141;BME280;54941;52.220;104.306;2023-06-22T10:58:30;94844.28;;;21.41;53.88
68141;BME280;54941;52.220;104.306;2023-06-22T11:00:56;94854.22;;;21.20;55.30
68141;BME280;54941;52.220;104.306;2023-06-22T11:03:22;94843.81;;;21.26;55.56
68141;BME280;54941;52.220;104.306;2023-06-22T11:05:49;94861.69;;;21.16;56.00
68141;BME280;54941;52.220;104.306;2023-06-22T11:08:17;94883.16;;;21.16;56.81
68141;BME280;54941;52.220;104.306;2023-06-22T11:10:44;94880.13;;;21.00;59.07
68141;BME280;54941;52.220;104.306;2023-06-22T11:13:11;94909.78;;;20.78;60.75
68141;BME280;54941;52.220;104.306;2023-06-22T11:15:39;94923.50;;;20.95;60.84
68141;BME280;54941;52.220;104.306;2023-06-22T11:18:05;94912.75;;;20.31;62.36
68141;BME280;54941;52.220;104.306;2023-06-22T11:20:32;94927.72;;;20.02;65.05
68141;BME280;54941;52.220;104.306;2023-06-22T11:22:58;94905.47;;;19.68;65.37
68141;BME280;54941;52.220;104.306;2023-06-22T11:25:24;94905.09;;;19.50;66.54
68141;BME280;54941;52.220;104.306;2023-06-22T11:27:51;94898.44;;;19.22;69.09
68141;BME280;54941;52.220;104.306;2023-06-22T11:30:19;94893.53;;;19.27;67.69
68141;BME280;54941;52.220;104.306;2023-06-22T11:32:45;94897.19;;;19.37;68.70
68141;BME280;54941;52.220;104.306;2023-06-22T11:35:11;94893.28;;;18.97;70.54
68141;BME280;54941;52.220;104.306;2023-06-22T11:37:38;94884.66;;;19.04;70.45
68141;BME280;54941;52.220;104.306;2023-06-22T11:40:05;94888.66;;;19.21;69.31
68141;BME280;54941;52.220;104.306;2023-06-22T11:42:32;94900.97;;;19.01;71.24
68141;BME280;54941;52.220;104.306;2023-06-22T11:44:58;94889.53;;;19.10;71.22
68141;BME280;54941;52.220;104.306;2023-06-22T11:47:26;94879.88;;;18.85;72.58
68141;BME280;54941;52.220;104.306;2023-06-22T11:49:52;94884.28;;;18.62;70.83
68141;BME280;54941;52.220;104.306;2023-06-22T11:52:18;94905.91;;;18.48;73.86
68141;BME280;54941;52.220;104.306;2023-06-22T11:54:45;94918.94;;;18.29;74.05
68141;BME280;54941;52.220;104.306;2023-06-22T11:57:11;94885.50;;;18.58;72.96
68141;BME280;54941;52.220;104.306;2023-06-22T11:59:37;94835.66;;;18.57;72.88
68141;BME280;54941;52.220;104.306;2023-06-22T12:02:04;94825.16;;;18.89;71.70
68141;BME280;54941;52.220;104.306;2023-06-22T12:04:32;94859.06;;;18.67;73.97
68141;BME280;54941;52.220;104.306;2023-06-22T12:06:59;94872.44;;;18.31;74.27
68141;BME280;54941;52.220;104.306;2023-06-22T12:09:25;94874.78;;;18.47;73.95
68141;BME280;54941;52.220;104.306;2023-06-22T12:11:51;94885.69;;;18.33;75.46
68141;BME280;54941;52.220;104.306;2023-06-22T12:14:18;94906.53;;;18.28;77.13
68141;BME280;54941;52.220;104.306;2023-06-22T12:16:44;94923.59;;;18.38;77.99
68141;BME280;54941;52.220;104.306;2023-06-22T12:19:11;94931.22;;;18.55;76.66
68141;BME280;54941;52.220;104.306;2023-06-22T12:21:39;94913.72;;;18.27;78.73
68141;BME280;54941;52.220;104.306;2023-06-22T12:24:05;94923.25;;;18.07;79.03
68141;BME280;54941;52.220;104.306;2023-06-22T12:26:31;94934.97;;;17.81;79.70
68141;BME280;54941;52.220;104.306;2023-06-22T12:28:58;94943.75;;;17.70;80.46
68141;BME280;54941;52.220;104.306;2023-06-22T12:31:24;94940.78;;;17.75;79.13
68141;BME280;54941;52.220;104.306;2023-06-22T12:33:50;94928.72;;;17.93;79.25
68141;BME280;54941;52.220;104.306;2023-06-22T12:36:17;94915.44;;;18.04;79.46
68141;BME280;54941;52.220;104.306;2023-06-22T12:38:45;94917.91;;;18.07;79.33
68141;BME280;54941;52.220;104.306;2023-06-22T12:41:11;94915.72;;;18.13;78.62